sensor_id;sensor_type;location;lat;lon;timestamp;P1;durP1;ratioP1;P2;durP2;ratioP2
25731;SDS011;13585;50.864;4.406;2023-05-07T00:01:50;3.42;;;2.63;;
25731;SDS011;13585;50.864;4.406;2023-05-07T00:04:16;4.47;;;2.70;;
25731;SDS011;13585;50.864;4.406;2023-05-07T00:06:42;3.15;;;2.35;;
25731;SDS011;13585;50.864;4.406;2023-05-07T00:09:08;4.47;;;2.80;;
25731;SDS011;13585;50.864;4.406;2023-05-07T00:11:33;3.60;;;2.47;;
25731;SDS011;13585;50.864;4.406;2023-05-07T00:13:59;4.40;;;2.63;;
25731;SDS011;13585;50.864;4.406;2023-05-07T00:16:25;4.53;;;3.03;;
25731;SDS011;13585;50.864;4.406;2023-05-07T00:18:52;4.55;;;2.83;;
25731;SDS011;13585;50.864;4.406;2023-05-07T00:21:18;5.18;;;2.85;;
25731;SDS011;13585;50.864;4.406;2023-05-07T00:23:44;2.92;;;2.38;;
25731;SDS011;13585;50.864;4.406;2023-05-07T00:26:09;5.18;;;2.60;;
25731;SDS011;13585;50.864;4.406;2023-05-07T00:28:35;3.45;;;2.65;;
25731;SDS011;13585;50.864;4.406;2023-05-07T00:31:00;4.80;;;2.65;;
25731;SDS011;13585;50.864;4.406;2023-05-07T00:33:26;4.75;;;3.28;;
25731;SDS011;13585;50.864;4.406;2023-05-07T00:35:52;4.32;;;2.80;;
25731;SDS011;13585;50.864;4.406;2023-05-07T00:38:19;6.25;;;3.15;;
25731;SDS011;13585;50.864;4.406;2023-05-07T00:40:45;6.32;;;2.72;;
25731;SDS011;13585;50.864;4.406;2023-05-07T00:43:10;4.18;;;2.85;;
25731;SDS011;13585;50.864;4.406;2023-05-07T00:45:37;4.45;;;3.00;;
25731;SDS011;13585;50.864;4.406;2023-05-07T00:48:04;4.72;;;2.80;;
25731;SDS011;13585;50.864;4.406;2023-05-07T00:50:30;4.13;;;2.65;;
25731;SDS011;13585;50.864;4.406;2023-05-07T00:52:57;3.72;;;2.58;;
25731;SDS011;13585;50.864;4.406;2023-05-07T00:55:23;5.13;;;2.60;;
25731;SDS011;13585;50.864;4.406;2023-05-07T00:57:49;4.10;;;2.90;;
25731;SDS011;13585;50.864;4.406;2023-05-07T01:00:16;4.32;;;2.90;;
25731;SDS011;13585;50.864;4.406;2023-05-07T01:02:43;4.65;;;3.05;;
25731;SDS011;13585;50.864;4.406;2023-05-07T01:05:09;4.10;;;2.65;;
25731;SDS011;13585;50.864;4.406;2023-05-07T01:07:39;4.45;;;3.17;;
25731;SDS011;13585;50.864;4.406;2023-05-07T01:10:07;4.07;;;3.03;;
25731;SDS011;13585;50.864;4.406;2023-05-07T01:12:34;3.65;;;2.40;;
25731;SDS011;13585;50.864;4.406;2023-05-07T01:15:03;5.47;;;2.97;;
25731;SDS011;13585;50.864;4.406;2023-05-07T01:17:33;4.78;;;3.25;;
25731;SDS011;13585;50.864;4.406;2023-05-07T01:20:03;4.80;;;3.17;;
25731;SDS011;13585;50.864;4.406;2023-05-07T01:22:36;5.47;;;3.22;;
25731;SDS011;13585;50.864;4.406;2023-05-07T01:25:03;4.32;;;3.10;;
25731;SDS011;13585;50.864;4.406;2023-05-07T01:27:30;3.88;;;2.95;;
25731;SDS011;13585;50.864;4.406;2023-05-07T01:29:56;3.40;;;2.63;;
25731;SDS011;13585;50.864;4.406;2023-05-07T01:32:23;5.32;;;3.40;;
25731;SDS011;13585;50.864;4.406;2023-05-07T01:34:57;4.05;;;3.20;;
25731;SDS011;13585;50.864;4.406;2023-05-07T01:37:23;5.03;;;3.30;;
25731;SDS011;13585;50.864;4.406;2023-05-07T01:39:50;5.03;;;3.13;;
25731;SDS011;13585;50.864;4.406;2023-05-07T01:42:17;4.90;;;3.17;;
25731;SDS011;13585;50.864;4.406;2023-05-07T01:44:43;5.57;;;3.25;;
25731;SDS011;13585;50.864;4.406;2023-05-07T01:47:08;5.30;;;3.30;;
25731;SDS011;13585;50.864;4.406;2023-05-07T01:49:34;3.92;;;3.17;;
25731;SDS011;13585;50.864;4.406;2023-05-07T01:52:00;4.43;;;2.95;;
25731;SDS011;13585;50.864;4.406;2023-05-07T01:54:26;3.85;;;3.03;;
25731;SDS011;13585;50.864;4.406;2023-05-07T01:56:53;3.88;;;2.78;;
25731;SDS011;13585;50.864;4.406;2023-05-07T01:59:18;4.30;;;3.13;;
25731;SDS011;13585;50.864;4.406;2023-05-07T02:01:44;3.85;;;3.00;;
25731;SDS011;13585;50.864;4.406;2023-05-07T02:04:10;5.57;;;3.22;;
25731;SDS011;13585;50.864;4.406;2023-05-07T02:06:35;4.43;;;2.95;;
25731;SDS011;13585;50.864;4.406;2023-05-07T02:09:01;4.78;;;3.05;;
25731;SDS011;13585;50.864;4.406;2023-05-07T02:11:26;4.05;;;3.03;;
25731;SDS011;13585;50.864;4.406;2023-05-07T02:13:52;5.07;;;3.38;;
25731;SDS011;13585;50.864;4.406;2023-05-07T02:16:18;4.15;;;2.88;;
25731;SDS011;13585;50.864;4.406;2023-05-07T02:18:44;4.53;;;3.13;;
25731;SDS011;13585;50.864;4.406;2023-05-07T02:21:10;4.88;;;3.13;;
25731;SDS011;13585;50.864;4.406;2023-05-07T02:23:36;4.03;;;3.10;;
25731;SDS011;13585;50.864;4.406;2023-05-07T02:26:01;5.07;;;3.05;;
25731;SDS011;13585;50.864;4.406;2023-05-07T02:28:28;3.67;;;2.88;;
25731;SDS011;13585;50.864;4.406;2023-05-07T02:30:54;5.65;;;3.60;;
25731;SDS011;13585;50.864;4.406;2023-05-07T02:33:19;4.40;;;3.08;;
25731;SDS011;13585;50.864;4.406;2023-05-07T02:35:45;4.80;;;3.25;;
25731;SDS011;13585;50.864;4.406;2023-05-07T02:38:11;4.32;;;3.10;;
25731;SDS011;13585;50.864;4.406;2023-05-07T02:40:36;5.10;;;3.25;;
25731;SDS011;13585;50.864;4.406;2023-05-07T02:43:05;3.65;;;3.00;;
25731;SDS011;13585;50.864;4.406;2023-05-07T02:45:31;4.43;;;3.30;;
25731;SDS011;13585;50.864;4.406;2023-05-07T02:47:57;4.97;;;3.42;;
25731;SDS011;13585;50.864;4.406;2023-05-07T02:50:23;4.13;;;3.17;;
25731;SDS011;13585;50.864;4.406;2023-05-07T02:52:49;4.85;;;3.30;;
25731;SDS011;13585;50.864;4.406;2023-05-07T02:55:15;4.93;;;3.20;;
25731;SDS011;13585;50.864;4.406;2023-05-07T02:57:41;4.60;;;3.17;;
25731;SDS011;13585;50.864;4.406;2023-05-07T03:00:10;5.32;;;3.03;;
25731;SDS011;13585;50.864;4.406;2023-05-07T03:02:39;4.30;;;3.03;;
25731;SDS011;13585;50.864;4.406;2023-05-07T03:05:05;5.07;;;3.30;;
25731;SDS011;13585;50.864;4.406;2023-05-07T03:07:31;5.15;;;3.30;;
25731;SDS011;13585;50.864;4.406;2023-05-07T03:09:57;6.15;;;3.50;;
25731;SDS011;13585;50.864;4.406;2023-05-07T03:12:23;6.18;;;3.55;;
25731;SDS011;13585;50.864;4.406;2023-05-07T03:14:48;4.30;;;2.92;;
25731;SDS011;13585;50.864;4.406;2023-05-07T03:17:14;4.47;;;3.33;;
25731;SDS011;13585;50.864;4.406;2023-05-07T03:19:41;5.25;;;3.30;;
25731;SDS011;13585;50.864;4.406;2023-05-07T03:22:06;5.07;;;3.00;;
25731;SDS011;13585;50.864;4.406;2023-05-07T03:24:32;3.50;;;2.80;;
25731;SDS011;13585;50.864;4.406;2023-05-07T03:26:58;4.10;;;3.10;;
25731;SDS011;13585;50.864;4.406;2023-05-07T03:29:23;4.57;;;3.10;;
25731;SDS011;13585;50.864;4.406;2023-05-07T03:31:49;5.50;;;3.35;;
25731;SDS011;13585;50.864;4.406;2023-05-07T03:34:15;4.82;;;3.40;;
25731;SDS011;13585;50.864;4.406;2023-05-07T03:36:42;4.82;;;3.03;;
25731;SDS011;13585;50.864;4.406;2023-05-07T03:39:07;4.10;;;3.05;;
25731;SDS011;13585;50.864;4.406;2023-05-07T03:41:33;4.07;;;3.08;;
25731;SDS011;13585;50.864;4.406;2023-05-07T03:43:59;4.18;;;3.17;;
25731;SDS011;13585;50.864;4.406;2023-05-07T03:46:24;5.50;;;2.95;;
25731;SDS011;13585;50.864;4.406;2023-05-07T03:48:51;5.25;;;3.53;;
25731;SDS011;13585;50.864;4.406;2023-05-07T03:51:17;4.57;;;3.03;;
25731;SDS011;13585;50.864;4.406;2023-05-07T03:53:43;3.50;;;3.03;;
25731;SDS011;13585;50.864;4.406;2023-05-07T03:56:08;4.97;;;3.47;;
25731;SDS011;13585;50.864;4.406;2023-05-07T03:58:34;5.50;;;3.40;;
25731;SDS011;13585;50.864;4.406;2023-05-07T04:01:00;3.47;;;2.83;;
25731;SDS011;13585;50.864;4.406;2023-05-07T04:03:26;4.78;;;3.30;;
25731;SDS011;13585;50.864;4.406;2023-05-07T04:05:51;3.78;;;2.97;;
25731;SDS011;13585;50.864;4.406;2023-05-07T04:08:17;3.50;;;3.03;;
25731;SDS011;13585;50.864;4.406;2023-05-07T04:10:42;4.13;;;2.90;;
25731;SDS011;13585;50.864;4.406;2023-05-07T04:13:08;4.05;;;3.38;;
25731;SDS011;13585;50.864;4.406;2023-05-07T04:15:34;3.88;;;2.85;;
25731;SDS011;13585;50.864;4.406;2023-05-07T04:18:00;5.40;;;3.40;;
25731;SDS011;13585;50.864;4.406;2023-05-07T04:20:26;5.10;;;3.22;;
25731;SDS011;13585;50.864;4.406;2023-05-07T04:22:52;4.43;;;3.13;;
25731;SDS011;13585;50.864;4.406;2023-05-07T04:27:53;5.05;;;3.28;;
25731;SDS011;13585;50.864;4.406;2023-05-07T04:30:21;5.28;;;3.25;;
25731;SDS011;13585;50.864;4.406;2023-05-07T04:32:47;4.57;;;3.30;;
25731;SDS011;13585;50.864;4.406;2023-05-07T04:35:13;3.75;;;3.13;;
25731;SDS011;13585;50.864;4.406;2023-05-07T04:37:39;3.70;;;2.83;;
25731;SDS011;13585;50.864;4.406;2023-05-07T04:40:05;4.75;;;3.20;;
25731;SDS011;13585;50.864;4.406;2023-05-07T04:42:31;5.40;;;3.47;;
25731;SDS011;13585;50.864;4.406;2023-05-07T04:44:57;4.60;;;3.00;;
25731;SDS011;13585;50.864;4.406;2023-05-07T04:47:23;3.83;;;2.97;;
25731;SDS011;13585;50.864;4.406;2023-05-07T04:49:48;4.22;;;3.05;;
25731;SDS011;13585;50.864;4.406;2023-05-07T04:52:14;4.95;;;3.33;;
25731;SDS011;13585;50.864;4.406;2023-05-07T04:54:40;4.05;;;2.85;;
25731;SDS011;13585;50.864;4.406;2023-05-07T04:57:06;4.18;;;3.00;;
25731;SDS011;13585;50.864;4.406;2023-05-07T04:59:32;4.47;;;3.17;;
25731;SDS011;13585;50.864;4.406;2023-05-07T05:01:57;4.13;;;3.10;;
25731;SDS011;13585;50.864;4.406;2023-05-07T05:04:23;3.65;;;3.17;;
25731;SDS011;13585;50.864;4.406;2023-05-07T05:06:49;3.88;;;2.58;;
25731;SDS011;13585;50.864;4.406;2023-05-07T05:09:14;3.58;;;2.88;;
25731;SDS011;13585;50.864;4.406;2023-05-07T05:11:41;5.07;;;3.35;;
25731;SDS011;13585;50.864;4.406;2023-05-07T05:14:06;4.70;;;3.38;;
25731;SDS011;13585;50.864;4.406;2023-05-07T05:16:32;5.68;;;3.78;;
25731;SDS011;13585;50.864;4.406;2023-05-07T05:18:58;4.88;;;3.10;;
25731;SDS011;13585;50.864;4.406;2023-05-07T05:21:24;4.97;;;3.13;;
25731;SDS011;13585;50.864;4.406;2023-05-07T05:23:49;3.80;;;3.20;;
25731;SDS011;13585;50.864;4.406;2023-05-07T05:26:15;4.63;;;3.10;;
25731;SDS011;13585;50.864;4.406;2023-05-07T05:28:41;4.30;;;3.03;;
25731;SDS011;13585;50.864;4.406;2023-05-07T05:31:06;4.43;;;3.40;;
25731;SDS011;13585;50.864;4.406;2023-05-07T05:33:32;5.55;;;3.20;;
25731;SDS011;13585;50.864;4.406;2023-05-07T05:35:57;4.18;;;3.10;;
25731;SDS011;13585;50.864;4.406;2023-05-07T05:38:23;4.47;;;3.13;;
25731;SDS011;13585;50.864;4.406;2023-05-07T05:40:49;4.70;;;3.20;;
25731;SDS011;13585;50.864;4.406;2023-05-07T05:43:14;4.78;;;3.20;;
25731;SDS011;13585;50.864;4.406;2023-05-07T05:45:40;3.35;;;2.90;;
25731;SDS011;13585;50.864;4.406;2023-05-07T05:48:06;3.92;;;3.08;;
25731;SDS011;13585;50.864;4.406;2023-05-07T05:50:33;4.68;;;3.17;;
25731;SDS011;13585;50.864;4.406;2023-05-07T05:53:00;4.15;;;2.92;;
25731;SDS011;13585;50.864;4.406;2023-05-07T05:55:26;4.13;;;3.15;;
25731;SDS011;13585;50.864;4.406;2023-05-07T05:57:52;5.40;;;3.03;;
25731;SDS011;13585;50.864;4.406;2023-05-07T06:00:17;4.43;;;3.00;;
25731;SDS011;13585;50.864;4.406;2023-05-07T06:02:43;3.97;;;2.95;;
25731;SDS011;13585;50.864;4.406;2023-05-07T06:05:09;4.07;;;2.95;;
25731;SDS011;13585;50.864;4.406;2023-05-07T06:07:35;5.07;;;3.38;;
25731;SDS011;13585;50.864;4.406;2023-05-07T06:10:01;3.83;;;2.90;;
25731;SDS011;13585;50.864;4.406;2023-05-07T06:12:26;4.35;;;3.35;;
25731;SDS011;13585;50.864;4.406;2023-05-07T06:14:52;2.75;;;2.53;;
25731;SDS011;13585;50.864;4.406;2023-05-07T06:17:18;3.53;;;2.80;;
25731;SDS011;13585;50.864;4.406;2023-05-07T06:19:43;4.40;;;3.10;;
25731;SDS011;13585;50.864;4.406;2023-05-07T06:22:09;3.17;;;2.75;;
25731;SDS011;13585;50.864;4.406;2023-05-07T06:24:34;3.92;;;2.95;;
25731;SDS011;13585;50.864;4.406;2023-05-07T06:27:00;3.92;;;2.90;;
25731;SDS011;13585;50.864;4.406;2023-05-07T06:29:26;4.80;;;3.13;;
25731;SDS011;13585;50.864;4.406;2023-05-07T06:31:54;4.03;;;2.75;;
25731;SDS011;13585;50.864;4.406;2023-05-07T06:34:19;3.40;;;2.78;;
25731;SDS011;13585;50.864;4.406;2023-05-07T06:36:45;3.38;;;2.47;;
25731;SDS011;13585;50.864;4.406;2023-05-07T06:39:11;2.75;;;2.50;;
25731;SDS011;13585;50.864;4.406;2023-05-07T06:41:37;3.97;;;2.90;;
25731;SDS011;13585;50.864;4.406;2023-05-07T06:44:02;4.15;;;3.17;;
25731;SDS011;13585;50.864;4.406;2023-05-07T06:46:28;3.45;;;2.75;;
25731;SDS011;13585;50.864;4.406;2023-05-07T06:48:54;3.72;;;2.67;;
25731;SDS011;13585;50.864;4.406;2023-05-07T06:51:21;4.18;;;3.00;;
25731;SDS011;13585;50.864;4.406;2023-05-07T06:53:47;4.43;;;2.80;;
25731;SDS011;13585;50.864;4.406;2023-05-07T06:56:13;4.10;;;2.85;;
25731;SDS011;13585;50.864;4.406;2023-05-07T06:58:38;3.88;;;2.70;;
25731;SDS011;13585;50.864;4.406;2023-05-07T07:01:04;3.92;;;3.08;;
25731;SDS011;13585;50.864;4.406;2023-05-07T07:03:29;3.50;;;2.80;;
25731;SDS011;13585;50.864;4.406;2023-05-07T07:05:55;3.08;;;2.47;;
25731;SDS011;13585;50.864;4.406;2023-05-07T07:08:21;3.75;;;2.67;;
25731;SDS011;13585;50.864;4.406;2023-05-07T07:10:47;4.20;;;2.70;;
25731;SDS011;13585;50.864;4.406;2023-05-07T07:13:13;3.97;;;3.00;;
25731;SDS011;13585;50.864;4.406;2023-05-07T07:15:39;3.15;;;2.50;;
25731;SDS011;13585;50.864;4.406;2023-05-07T07:18:05;3.85;;;2.60;;
25731;SDS011;13585;50.864;4.406;2023-05-07T07:20:31;4.38;;;2.90;;
25731;SDS011;13585;50.864;4.406;2023-05-07T07:22:57;4.93;;;3.05;;
25731;SDS011;13585;50.864;4.406;2023-05-07T07:25:22;3.67;;;2.92;;
25731;SDS011;13585;50.864;4.406;2023-05-07T07:27:48;3.40;;;2.70;;
25731;SDS011;13585;50.864;4.406;2023-05-07T07:30:14;3.00;;;2.65;;
25731;SDS011;13585;50.864;4.406;2023-05-07T07:32:40;3.45;;;2.78;;
25731;SDS011;13585;50.864;4.406;2023-05-07T07:35:06;3.20;;;2.35;;
25731;SDS011;13585;50.864;4.406;2023-05-07T07:37:32;2.95;;;2.50;;
25731;SDS011;13585;50.864;4.406;2023-05-07T07:39:57;3.53;;;2.63;;
25731;SDS011;13585;50.864;4.406;2023-05-07T07:42:23;2.65;;;2.20;;
25731;SDS011;13585;50.864;4.406;2023-05-07T07:44:49;3.10;;;2.63;;
25731;SDS011;13585;50.864;4.406;2023-05-07T07:47:15;3.50;;;2.70;;
25731;SDS011;13585;50.864;4.406;2023-05-07T07:49:40;4.07;;;2.53;;
25731;SDS011;13585;50.864;4.406;2023-05-07T07:52:06;3.20;;;2.88;;
25731;SDS011;13585;50.864;4.406;2023-05-07T07:54:32;3.17;;;2.50;;
25731;SDS011;13585;50.864;4.406;2023-05-07T07:56:57;3.65;;;2.60;;
25731;SDS011;13585;50.864;4.406;2023-05-07T07:59:23;3.83;;;2.60;;
25731;SDS011;13585;50.864;4.406;2023-05-07T08:01:49;3.47;;;2.53;;
25731;SDS011;13585;50.864;4.406;2023-05-07T08:04:15;2.65;;;2.22;;
25731;SDS011;13585;50.864;4.406;2023-05-07T08:06:41;3.75;;;2.30;;
25731;SDS011;13585;50.864;4.406;2023-05-07T08:09:19;2.72;;;2.20;;
25731;SDS011;13585;50.864;4.406;2023-05-07T08:11:45;3.05;;;2.58;;
25731;SDS011;13585;50.864;4.406;2023-05-07T08:14:14;2.53;;;2.10;;
25731;SDS011;13585;50.864;4.406;2023-05-07T08:16:40;3.13;;;2.42;;
25731;SDS011;13585;50.864;4.406;2023-05-07T08:19:06;2.47;;;2.13;;
25731;SDS011;13585;50.864;4.406;2023-05-07T08:21:32;2.67;;;2.33;;
25731;SDS011;13585;50.864;4.406;2023-05-07T08:24:00;3.55;;;2.53;;
25731;SDS011;13585;50.864;4.406;2023-05-07T08:26:26;2.80;;;2.00;;
25731;SDS011;13585;50.864;4.406;2023-05-07T08:28:55;3.83;;;2.30;;
25731;SDS011;13585;50.864;4.406;2023-05-07T08:31:20;2.72;;;2.08;;
25731;SDS011;13585;50.864;4.406;2023-05-07T08:33:46;2.58;;;2.10;;
25731;SDS011;13585;50.864;4.406;2023-05-07T08:36:12;2.40;;;2.20;;
25731;SDS011;13585;50.864;4.406;2023-05-07T08:38:37;2.42;;;1.92;;
25731;SDS011;13585;50.864;4.406;2023-05-07T08:41:05;2.72;;;2.05;;
25731;SDS011;13585;50.864;4.406;2023-05-07T08:43:32;2.97;;;2.15;;
25731;SDS011;13585;50.864;4.406;2023-05-07T08:46:01;2.97;;;2.05;;
25731;SDS011;13585;50.864;4.406;2023-05-07T08:48:27;2.50;;;2.20;;
25731;SDS011;13585;50.864;4.406;2023-05-07T08:50:55;2.92;;;2.20;;
25731;SDS011;13585;50.864;4.406;2023-05-07T08:53:21;2.22;;;2.00;;
25731;SDS011;13585;50.864;4.406;2023-05-07T08:55:46;2.83;;;2.28;;
25731;SDS011;13585;50.864;4.406;2023-05-07T08:58:13;3.00;;;2.08;;
25731;SDS011;13585;50.864;4.406;2023-05-07T09:00:39;2.92;;;1.92;;
25731;SDS011;13585;50.864;4.406;2023-05-07T09:03:06;2.53;;;2.00;;
25731;SDS011;13585;50.864;4.406;2023-05-07T09:05:32;3.67;;;2.30;;
25731;SDS011;13585;50.864;4.406;2023-05-07T09:08:04;2.30;;;1.85;;
25731;SDS011;13585;50.864;4.406;2023-05-07T09:10:34;2.55;;;2.13;;
25731;SDS011;13585;50.864;4.406;2023-05-07T09:12:59;2.85;;;1.90;;
25731;SDS011;13585;50.864;4.406;2023-05-07T09:15:26;2.75;;;1.92;;
25731;SDS011;13585;50.864;4.406;2023-05-07T09:17:52;2.67;;;1.70;;
25731;SDS011;13585;50.864;4.406;2023-05-07T09:20:19;2.78;;;2.17;;
25731;SDS011;13585;50.864;4.406;2023-05-07T09:22:45;3.42;;;2.30;;
25731;SDS011;13585;50.864;4.406;2023-05-07T09:25:11;2.83;;;1.92;;
25731;SDS011;13585;50.864;4.406;2023-05-07T09:27:36;2.78;;;2.33;;
25731;SDS011;13585;50.864;4.406;2023-05-07T09:30:03;2.15;;;1.85;;
25731;SDS011;13585;50.864;4.406;2023-05-07T09:32:32;3.00;;;2.05;;
25731;SDS011;13585;50.864;4.406;2023-05-07T09:35:05;2.67;;;2.00;;
25731;SDS011;13585;50.864;4.406;2023-05-07T09:37:31;3.22;;;1.80;;
25731;SDS011;13585;50.864;4.406;2023-05-07T09:39:57;3.33;;;2.03;;
25731;SDS011;13585;50.864;4.406;2023-05-07T09:42:24;2.90;;;2.00;;
25731;SDS011;13585;50.864;4.406;2023-05-07T09:44:51;2.97;;;1.90;;
25731;SDS011;13585;50.864;4.406;2023-05-07T09:47:18;3.38;;;2.00;;
25731;SDS011;13585;50.864;4.406;2023-05-07T09:49:55;3.33;;;2.20;;
25731;SDS011;13585;50.864;4.406;2023-05-07T09:52:24;2.30;;;1.65;;
25731;SDS011;13585;50.864;4.406;2023-05-07T09:58:25;2.28;;;1.65;;
25731;SDS011;13585;50.864;4.406;2023-05-07T10:00:51;3.78;;;2.05;;
25731;SDS011;13585;50.864;4.406;2023-05-07T10:03:18;2.72;;;1.88;;
25731;SDS011;13585;50.864;4.406;2023-05-07T10:05:45;2.05;;;1.75;;
25731;SDS011;13585;50.864;4.406;2023-05-07T10:08:12;2.97;;;1.95;;
25731;SDS011;13585;50.864;4.406;2023-05-07T10:10:39;2.08;;;1.55;;
25731;SDS011;13585;50.864;4.406;2023-05-07T10:13:08;2.17;;;1.60;;
25731;SDS011;13585;50.864;4.406;2023-05-07T10:15:36;3.28;;;2.03;;
25731;SDS011;13585;50.864;4.406;2023-05-07T10:18:20;2.33;;;1.73;;
25731;SDS011;13585;50.864;4.406;2023-05-07T10:20:48;2.83;;;1.92;;
25731;SDS011;13585;50.864;4.406;2023-05-07T10:23:18;2.35;;;1.85;;
25731;SDS011;13585;50.864;4.406;2023-05-07T10:25:48;2.72;;;1.88;;
25731;SDS011;13585;50.864;4.406;2023-05-07T10:28:14;2.53;;;1.92;;
25731;SDS011;13585;50.864;4.406;2023-05-07T10:30:47;2.22;;;1.90;;
25731;SDS011;13585;50.864;4.406;2023-05-07T10:33:35;2.53;;;1.92;;
25731;SDS011;13585;50.864;4.406;2023-05-07T10:36:02;1.70;;;1.58;;
25731;SDS011;13585;50.864;4.406;2023-05-07T10:38:30;1.63;;;1.52;;
25731;SDS011;13585;50.864;4.406;2023-05-07T10:40:56;2.70;;;1.80;;
25731;SDS011;13585;50.864;4.406;2023-05-07T10:43:22;2.55;;;1.88;;
25731;SDS011;13585;50.864;4.406;2023-05-07T10:48:38;2.17;;;1.73;;
25731;SDS011;13585;50.864;4.406;2023-05-07T10:51:31;3.20;;;2.10;;
25731;SDS011;13585;50.864;4.406;2023-05-07T10:56:35;2.35;;;1.88;;
25731;SDS011;13585;50.864;4.406;2023-05-07T11:04:27;2.65;;;2.03;;
25731;SDS011;13585;50.864;4.406;2023-05-07T11:15:08;3.03;;;2.00;;
25731;SDS011;13585;50.864;4.406;2023-05-07T11:17:57;3.05;;;2.25;;
25731;SDS011;13585;50.864;4.406;2023-05-07T11:26:03;4.55;;;2.58;;
25731;SDS011;13585;50.864;4.406;2023-05-07T11:28:36;4.28;;;2.38;;
25731;SDS011;13585;50.864;4.406;2023-05-07T11:31:03;3.50;;;2.72;;
25731;SDS011;13585;50.864;4.406;2023-05-07T11:33:32;3.53;;;2.60;;
25731;SDS011;13585;50.864;4.406;2023-05-07T11:35:58;3.40;;;2.50;;
25731;SDS011;13585;50.864;4.406;2023-05-07T11:38:25;3.08;;;2.50;;
25731;SDS011;13585;50.864;4.406;2023-05-07T11:40:57;2.80;;;2.45;;
25731;SDS011;13585;50.864;4.406;2023-05-07T11:43:25;3.30;;;2.45;;
25731;SDS011;13585;50.864;4.406;2023-05-07T11:45:51;4.13;;;2.47;;
25731;SDS011;13585;50.864;4.406;2023-05-07T11:48:17;3.15;;;2.30;;
25731;SDS011;13585;50.864;4.406;2023-05-07T11:50:52;3.13;;;2.50;;
25731;SDS011;13585;50.864;4.406;2023-05-07T11:53:24;3.47;;;2.75;;
25731;SDS011;13585;50.864;4.406;2023-05-07T11:55:56;3.97;;;2.40;;
25731;SDS011;13585;50.864;4.406;2023-05-07T11:58:23;3.03;;;2.70;;
25731;SDS011;13585;50.864;4.406;2023-05-07T12:00:52;3.03;;;2.35;;
25731;SDS011;13585;50.864;4.406;2023-05-07T12:03:19;3.90;;;2.70;;
25731;SDS011;13585;50.864;4.406;2023-05-07T12:05:45;3.45;;;2.60;;
25731;SDS011;13585;50.864;4.406;2023-05-07T12:08:15;3.20;;;2.55;;
25731;SDS011;13585;50.864;4.406;2023-05-07T12:10:42;2.60;;;2.10;;
25731;SDS011;13585;50.864;4.406;2023-05-07T12:13:18;3.03;;;2.40;;
25731;SDS011;13585;50.864;4.406;2023-05-07T12:15:44;3.60;;;2.70;;
25731;SDS011;13585;50.864;4.406;2023-05-07T12:18:11;5.03;;;2.90;;
25731;SDS011;13585;50.864;4.406;2023-05-07T12:20:37;3.90;;;2.63;;
25731;SDS011;13585;50.864;4.406;2023-05-07T12:23:04;4.70;;;3.28;;
25731;SDS011;13585;50.864;4.406;2023-05-07T12:25:39;3.05;;;2.45;;
25731;SDS011;13585;50.864;4.406;2023-05-07T12:30:39;3.72;;;2.63;;
25731;SDS011;13585;50.864;4.406;2023-05-07T12:33:05;3.50;;;2.58;;
25731;SDS011;13585;50.864;4.406;2023-05-07T12:35:32;3.00;;;2.28;;
25731;SDS011;13585;50.864;4.406;2023-05-07T12:38:04;3.22;;;2.45;;
25731;SDS011;13585;50.864;4.406;2023-05-07T12:40:40;3.13;;;2.55;;
25731;SDS011;13585;50.864;4.406;2023-05-07T12:43:07;2.88;;;2.40;;
25731;SDS011;13585;50.864;4.406;2023-05-07T12:45:39;3.33;;;2.25;;
25731;SDS011;13585;50.864;4.406;2023-05-07T12:48:06;2.78;;;2.35;;
25731;SDS011;13585;50.864;4.406;2023-05-07T12:50:32;3.70;;;2.45;;
25731;SDS011;13585;50.864;4.406;2023-05-07T12:52:58;3.33;;;2.38;;
25731;SDS011;13585;50.864;4.406;2023-05-07T12:55:30;2.78;;;2.20;;
25731;SDS011;13585;50.864;4.406;2023-05-07T12:57:56;3.25;;;2.35;;
25731;SDS011;13585;50.864;4.406;2023-05-07T13:00:35;2.58;;;2.25;;
25731;SDS011;13585;50.864;4.406;2023-05-07T13:03:01;3.00;;;2.53;;
25731;SDS011;13585;50.864;4.406;2023-05-07T13:05:27;3.08;;;2.60;;
25731;SDS011;13585;50.864;4.406;2023-05-07T13:07:53;2.75;;;2.10;;
25731;SDS011;13585;50.864;4.406;2023-05-07T13:10:19;3.97;;;2.38;;
25731;SDS011;13585;50.864;4.406;2023-05-07T13:12:46;2.90;;;2.45;;
25731;SDS011;13585;50.864;4.406;2023-05-07T13:15:14;2.88;;;2.30;;
25731;SDS011;13585;50.864;4.406;2023-05-07T13:20:55;3.95;;;2.55;;
25731;SDS011;13585;50.864;4.406;2023-05-07T13:23:21;2.72;;;2.20;;
25731;SDS011;13585;50.864;4.406;2023-05-07T13:25:50;3.33;;;2.38;;
25731;SDS011;13585;50.864;4.406;2023-05-07T13:28:15;3.15;;;2.20;;
25731;SDS011;13585;50.864;4.406;2023-05-07T13:30:44;2.50;;;2.20;;
25731;SDS011;13585;50.864;4.406;2023-05-07T13:33:10;3.40;;;2.40;;
25731;SDS011;13585;50.864;4.406;2023-05-07T13:35:36;3.15;;;2.38;;
25731;SDS011;13585;50.864;4.406;2023-05-07T13:38:02;3.40;;;2.58;;
25731;SDS011;13585;50.864;4.406;2023-05-07T13:40:31;3.03;;;2.30;;
25731;SDS011;13585;50.864;4.406;2023-05-07T13:42:57;3.83;;;2.72;;
25731;SDS011;13585;50.864;4.406;2023-05-07T13:45:24;2.97;;;2.33;;
25731;SDS011;13585;50.864;4.406;2023-05-07T13:47:51;2.42;;;2.13;;
25731;SDS011;13585;50.864;4.406;2023-05-07T13:50:16;2.92;;;2.30;;
25731;SDS011;13585;50.864;4.406;2023-05-07T13:52:45;3.28;;;2.33;;
25731;SDS011;13585;50.864;4.406;2023-05-07T13:55:15;3.75;;;2.40;;
25731;SDS011;13585;50.864;4.406;2023-05-07T13:57:42;3.00;;;2.10;;
25731;SDS011;13585;50.864;4.406;2023-05-07T14:00:08;2.42;;;1.90;;
25731;SDS011;13585;50.864;4.406;2023-05-07T14:02:34;3.70;;;2.60;;
25731;SDS011;13585;50.864;4.406;2023-05-07T14:05:00;3.35;;;2.28;;
25731;SDS011;13585;50.864;4.406;2023-05-07T14:07:26;3.72;;;2.72;;
25731;SDS011;13585;50.864;4.406;2023-05-07T14:09:51;2.78;;;2.30;;
25731;SDS011;13585;50.864;4.406;2023-05-07T14:12:17;3.08;;;2.30;;
25731;SDS011;13585;50.864;4.406;2023-05-07T14:14:43;2.95;;;2.30;;
25731;SDS011;13585;50.864;4.406;2023-05-07T14:17:08;3.13;;;2.55;;
25731;SDS011;13585;50.864;4.406;2023-05-07T14:19:34;2.40;;;2.08;;
25731;SDS011;13585;50.864;4.406;2023-05-07T14:22:00;4.30;;;2.63;;
25731;SDS011;13585;50.864;4.406;2023-05-07T14:24:25;2.92;;;2.30;;
25731;SDS011;13585;50.864;4.406;2023-05-07T14:26:51;2.85;;;2.20;;
25731;SDS011;13585;50.864;4.406;2023-05-07T14:29:16;2.42;;;2.22;;
25731;SDS011;13585;50.864;4.406;2023-05-07T14:31:44;3.35;;;1.90;;
25731;SDS011;13585;50.864;4.406;2023-05-07T14:34:10;3.53;;;1.98;;
25731;SDS011;13585;50.864;4.406;2023-05-07T14:36:36;2.88;;;2.22;;
25731;SDS011;13585;50.864;4.406;2023-05-07T14:39:05;3.63;;;2.42;;
25731;SDS011;13585;50.864;4.406;2023-05-07T14:44:23;2.85;;;2.28;;
25731;SDS011;13585;50.864;4.406;2023-05-07T14:46:49;2.45;;;2.03;;
25731;SDS011;13585;50.864;4.406;2023-05-07T14:49:15;2.47;;;2.03;;
25731;SDS011;13585;50.864;4.406;2023-05-07T14:51:44;3.58;;;2.60;;
25731;SDS011;13585;50.864;4.406;2023-05-07T14:54:10;2.53;;;1.98;;
25731;SDS011;13585;50.864;4.406;2023-05-07T14:56:36;2.70;;;2.20;;
25731;SDS011;13585;50.864;4.406;2023-05-07T14:59:02;3.42;;;2.47;;
25731;SDS011;13585;50.864;4.406;2023-05-07T15:01:33;2.90;;;2.60;;
25731;SDS011;13585;50.864;4.406;2023-05-07T15:06:40;3.22;;;2.50;;
25731;SDS011;13585;50.864;4.406;2023-05-07T15:09:09;2.67;;;2.40;;
25731;SDS011;13585;50.864;4.406;2023-05-07T15:11:36;3.65;;;2.42;;
25731;SDS011;13585;50.864;4.406;2023-05-07T15:14:02;2.83;;;2.40;;
25731;SDS011;13585;50.864;4.406;2023-05-07T15:16:29;2.67;;;2.13;;
25731;SDS011;13585;50.864;4.406;2023-05-07T15:18:57;3.35;;;2.42;;
25731;SDS011;13585;50.864;4.406;2023-05-07T15:21:32;3.10;;;2.50;;
25731;SDS011;13585;50.864;4.406;2023-05-07T15:23:59;2.50;;;2.28;;
25731;SDS011;13585;50.864;4.406;2023-05-07T15:26:25;2.72;;;2.40;;
25731;SDS011;13585;50.864;4.406;2023-05-07T15:28:51;3.10;;;2.35;;